Minerva Zen — SVBN3 — position and weather

sailwx.info

Track history (hours):
 
Tides and Currents Weather Stations Pressure Air Temp Water Temp Dewpoint Dewpoint Depression Visibility Wind Speed Wind Dir Waves Ship Positions

Minerva Zen

Last reported at 2016-Feb-04 18:11 UTC. Time now 2016-Feb-06 15:41 UTC.
Position N 50°29' W 000°04'.

Length 183 m; draft 12.2 m.

Type: Ship. MMSI: 241190000.

Date/timePositionNaut miles runAvg speedWind from/ knotsBaromVisibWave heightAir tempDewpointWater temp
2016-Feb-04 18:11N 50°29' W 000°04'1911.8
2016-Feb-04 16:33N 50°34' E 000°26'1212.1
2016-Feb-04 15:33N 50°39' E 000°43'1313.0
2016-Feb-04 14:34N 50°46' E 000°60'1713.3
2016-Feb-04 13:18N 50°56' E 001°21'1013.2
2016-Feb-04 12:33N 51°04' E 001°30'1212.1
2016-Feb-04 11:33N 51°12' E 001°44'1211.6
2016-Feb-04 10:34N 51°22' E 001°54'1010.0
2016-Feb-04 09:33N 51°22' E 002°10'1110.6
2016-Feb-04 08:34N 51°22' E 002°27'9 9.4
2016-Feb-04 07:33N 51°23' E 002°42'8 8.0
2016-Feb-04 06:33N 51°25' E 002°55'1211.6
2016-Feb-04 05:34N 51°25' E 003°13'1212.3
2016-Feb-04 04:33N 51°25' E 003°33'8 7.7
2016-Feb-04 03:34N 51°22' E 003°44'1010.5
2016-Feb-04 02:34N 51°26' E 003°60'9 9.3
2016-Feb-04 01:33N 51°22' E 004°13'3 2.9
2016-Feb-04 00:34N 51°21' E 004°17'1 1.3
2016-Feb-03 23:34N 51°20' E 004°18'0 0.2
2016-Feb-03 22:33N 51°20' E 004°18'0 0.0
2016-Feb-03 21:33N 51°20' E 004°18'0 0.0
2016-Feb-03 20:33N 51°20' E 004°18'0 0.0
2016-Feb-03 19:33N 51°20' E 004°18'0 0.0
2016-Feb-03 18:33N 51°20' E 004°18'0 0.0
2016-Feb-03 17:33N 51°20' E 004°18'0 0.0
2016-Feb-03 16:30N 51°20' E 004°18'0 0.0
2016-Feb-03 15:33N 51°20' E 004°18'0 0.0
2016-Feb-03 14:33N 51°20' E 004°18'0 0.0
2016-Feb-03 13:33N 51°20' E 004°18'0 0.0
2016-Feb-03 12:30N 51°20' E 004°18'0 0.0
2016-Feb-03 11:33N 51°20' E 004°18'0 0.0
2016-Feb-03 10:33N 51°20' E 004°18'0 0.0
2016-Feb-03 09:33N 51°20' E 004°18'0 0.0
2016-Feb-03 08:33N 51°20' E 004°18'0 0.0
2016-Feb-03 07:33N 51°20' E 004°18'0 0.0
2016-Feb-03 06:33N 51°20' E 004°18'0 0.0
2016-Feb-03 05:33N 51°20' E 004°18'0 0.0
2016-Feb-03 04:33N 51°20' E 004°18'0 0.0
2016-Feb-03 03:33N 51°20' E 004°18'0 0.0
2016-Feb-03 02:33N 51°20' E 004°18'0 0.0
2016-Feb-03 01:33N 51°20' E 004°18'0 0.0
2016-Feb-03 00:33N 51°20' E 004°18'0 0.0
2016-Feb-02 23:33N 51°20' E 004°18'0 0.0
2016-Feb-02 22:30N 51°20' E 004°18'0 0.0
2016-Feb-02 21:33N 51°20' E 004°18'0 0.0
2016-Feb-02 20:33N 51°20' E 004°18'0 0.0
2016-Feb-02 19:33N 51°20' E 004°18'0 0.0
2016-Feb-02 18:30N 51°20' E 004°18'0 0.0
2016-Feb-02 17:33N 51°20' E 004°18'0 0.0
2016-Feb-02 16:33N 51°20' E 004°18'0 0.0
2016-Feb-02 15:33N 51°20' E 004°18'0 0.0
2016-Feb-02 14:33N 51°20' E 004°18'0 0.0
2016-Feb-02 13:33N 51°20' E 004°18'0 0.0
2016-Feb-02 12:33N 51°20' E 004°18'0 0.0
2016-Feb-02 11:33N 51°20' E 004°18'0 0.0
2016-Feb-02 10:33N 51°20' E 004°18'0 0.0
2016-Feb-02 09:33N 51°20' E 004°18'0 0.0
2016-Feb-02 08:33N 51°20' E 004°18'0 0.0
2016-Feb-02 07:33N 51°20' E 004°18'0 0.0
2016-Feb-02 06:33N 51°20' E 004°18'0 0.0
2016-Feb-02 05:30N 51°20' E 004°18'0 0.0
2016-Feb-02 04:33N 51°20' E 004°18'0 0.0
2016-Feb-02 03:33N 51°20' E 004°18'1 0.6
2016-Feb-02 02:33N 51°20' E 004°18'1 0.8
2016-Feb-02 01:33N 51°21' E 004°17'0 0.0
2016-Feb-02 00:34N 51°21' E 004°17'2 2.1
2016-Feb-01 23:33N 51°21' E 004°14'6 6.4
2016-Feb-01 22:33N 51°22' E 004°04'6 6.1
2016-Feb-01 21:33N 51°22' E 003°54'7 7.3
2016-Feb-01 20:34N 51°25' E 003°44'0 0.1
2016-Feb-01 19:33N 51°25' E 003°44'0 0.0
2016-Feb-01 18:33N 51°25' E 003°44'0 0.0
2016-Feb-01 17:33N 51°25' E 003°44'0 0.0
2016-Feb-01 16:33N 51°25' E 003°44'0 0.0
2016-Feb-01 15:33N 51°25' E 003°44'0 0.0
2016-Feb-01 14:33N 51°25' E 003°44'0 0.0
2016-Feb-01 13:33N 51°25' E 003°44'0 0.0
2016-Feb-01 12:33N 51°25' E 003°44'0 0.0
2016-Feb-01 11:33N 51°25' E 003°44'0 0.0
2016-Feb-01 10:33N 51°25' E 003°44'0 0.0
2016-Feb-01 09:33N 51°25' E 003°44'0 0.0
2016-Feb-01 08:33N 51°25' E 003°44'0 0.0
2016-Feb-01 07:33N 51°25' E 003°44'0 0.0
2016-Feb-01 06:33N 51°25' E 003°44'0 0.0
2016-Feb-01 05:33N 51°25' E 003°44'0 0.0
2016-Feb-01 04:33N 51°25' E 003°44'0 0.0
2016-Feb-01 03:33N 51°25' E 003°44'0 0.0
2016-Feb-01 02:33N 51°25' E 003°44'0 0.0
2016-Feb-01 01:33N 51°25' E 003°44'0 0.0
2016-Feb-01 00:33N 51°25' E 003°44'0 0.0
2016-Jan-31 23:33N 51°25' E 003°44'0 0.0
2016-Jan-31 22:33N 51°25' E 003°44'0 0.0
2016-Jan-31 21:33N 51°25' E 003°44'0 0.0
2016-Jan-31 20:33N 51°25' E 003°44'0 0.0
2016-Jan-31 19:33N 51°25' E 003°44'0 0.0
2016-Jan-31 18:33N 51°25' E 003°44'0 0.0
2016-Jan-31 17:33N 51°25' E 003°44'0 0.0
2016-Jan-31 16:33N 51°25' E 003°44'0 0.0
2016-Jan-31 15:33N 51°25' E 003°44'0 0.0
2016-Jan-31 14:33N 51°25' E 003°44'0 0.0
2016-Jan-31 13:33N 51°25' E 003°44'0 0.0
2016-Jan-31 12:33N 51°25' E 003°44'0 0.0
2016-Jan-31 11:33N 51°25' E 003°44'0 0.0
2016-Jan-31 10:33N 51°25' E 003°44'0 0.0
2016-Jan-31 09:33N 51°25' E 003°44'0 0.0
2016-Jan-31 08:33N 51°25' E 003°44'1 1.4
2016-Jan-31 07:33N 51°26' E 003°42'1211.8
2016-Jan-31 06:34N 51°24' E 003°23'1413.9
2016-Jan-31 05:34N 51°24' E 003°01'1212.3
2016-Jan-31 04:33N 51°22' E 002°41'5 5.4
2016-Jan-31 03:33N 51°22' E 002°33'5 5.3
2016-Jan-31 02:33N 51°20' E 002°24'6 6.3
2016-Jan-31 01:33N 51°19' E 002°15'7 6.7
2016-Jan-31 00:33N 51°20' E 002°04'7 6.8
2016-Jan-30 23:34N 51°26' E 001°59'7 7.5
2016-Jan-30 22:33N 51°33' E 002°05'7 6.8
2016-Jan-30 21:33N 51°38' E 002°12'7 7.3
2016-Jan-30 20:33N 51°43' E 002°20'7 7.4
2016-Jan-30 19:33N 51°48' E 002°29'149 6.2
2016-Jan-29 19:23N 54°01' E 004°21'6 7.7
2016-Jan-29 18:33N 54°06' E 004°27'300 6.8
2016-Jan-27 22:23N 57°48' E 010°27'810.2
2016-Jan-27 21:33N 57°49' E 010°42'7 7.3
2016-Jan-27 20:33N 57°42' E 010°46'1412.6
2016-Jan-27 19:28N 57°33' E 011°06'1213.5
2016-Jan-27 18:34N 57°28' E 011°26'1414.1
2016-Jan-27 17:33N 57°14' E 011°35'11212.4
2016-Jan-27 08:32N 55°24' E 011°01'1212.2
2016-Jan-27 07:33N 55°12' E 011°04'1212.3
2016-Jan-27 06:33N 54°60' E 010°59'1111.6
2016-Jan-27 05:33N 54°50' E 010°50'1110.6
2016-Jan-27 04:33N 54°39' E 010°52'1111.4
2016-Jan-27 03:33N 54°36' E 011°11'1211.7
2016-Jan-27 02:33N 54°30' E 011°29'1212.4
2016-Jan-27 01:33N 54°27' E 011°49'1212.2
2016-Jan-27 00:33N 54°27' E 012°10'1110.9
2016-Jan-26 23:33N 54°37' E 012°18'1212.2
2016-Jan-26 22:33N 54°45' E 012°33'3113.2
2016-Jan-26 20:12N 54°56' E 013°24'913.9
2016-Jan-26 19:34N 54°59' E 013°39'1414.0
2016-Jan-26 18:33N 55°04' E 014°02'1413.5
2016-Jan-26 17:33N 55°14' E 014°18'1414.0
2016-Jan-26 16:33N 55°25' E 014°33'1413.6
2016-Jan-26 15:34N 55°32' E 014°54'1414.0
2016-Jan-26 14:33N 55°37' E 015°16'1414.3
2016-Jan-26 13:33N 55°41' E 015°41'  
Track history (hours):
 
Tides and Currents Weather Stations Pressure Air Temp Water Temp Dewpoint Dewpoint Depression Visibility Wind Speed Wind Dir Waves Ship Positions

Minerva Zen

Last reported at 2016-Feb-04 18:11 UTC. Time now 2016-Feb-06 15:41 UTC.
Position N 50°29' W 000°04'.

Length 183 m; draft 12.2 m.

Type: Ship. MMSI: 241190000.

Date/timePositionNaut miles runAvg speedWind from/ knotsBaromVisibWave heightAir tempDewpointWater temp
2016-Feb-04 18:11N 50°29' W 000°04'1911.8
2016-Feb-04 16:33N 50°34' E 000°26'1212.1
2016-Feb-04 15:33N 50°39' E 000°43'1313.0
2016-Feb-04 14:34N 50°46' E 000°60'1713.3
2016-Feb-04 13:18N 50°56' E 001°21'1013.2
2016-Feb-04 12:33N 51°04' E 001°30'1212.1
2016-Feb-04 11:33N 51°12' E 001°44'1211.6
2016-Feb-04 10:34N 51°22' E 001°54'1010.0
2016-Feb-04 09:33N 51°22' E 002°10'1110.6
2016-Feb-04 08:34N 51°22' E 002°27'9 9.4
2016-Feb-04 07:33N 51°23' E 002°42'8 8.0
2016-Feb-04 06:33N 51°25' E 002°55'1211.6
2016-Feb-04 05:34N 51°25' E 003°13'1212.3
2016-Feb-04 04:33N 51°25' E 003°33'8 7.7
2016-Feb-04 03:34N 51°22' E 003°44'1010.5
2016-Feb-04 02:34N 51°26' E 003°60'9 9.3
2016-Feb-04 01:33N 51°22' E 004°13'3 2.9
2016-Feb-04 00:34N 51°21' E 004°17'1 1.3
2016-Feb-03 23:34N 51°20' E 004°18'0 0.2
2016-Feb-03 22:33N 51°20' E 004°18'0 0.0
2016-Feb-03 21:33N 51°20' E 004°18'0 0.0
2016-Feb-03 20:33N 51°20' E 004°18'0 0.0
2016-Feb-03 19:33N 51°20' E 004°18'0 0.0
2016-Feb-03 18:33N 51°20' E 004°18'0 0.0
2016-Feb-03 17:33N 51°20' E 004°18'0 0.0
2016-Feb-03 16:30N 51°20' E 004°18'0 0.0
2016-Feb-03 15:33N 51°20' E 004°18'0 0.0
2016-Feb-03 14:33N 51°20' E 004°18'0 0.0
2016-Feb-03 13:33N 51°20' E 004°18'0 0.0
2016-Feb-03 12:30N 51°20' E 004°18'0 0.0
2016-Feb-03 11:33N 51°20' E 004°18'0 0.0
2016-Feb-03 10:33N 51°20' E 004°18'0 0.0
2016-Feb-03 09:33N 51°20' E 004°18'0 0.0
2016-Feb-03 08:33N 51°20' E 004°18'0 0.0
2016-Feb-03 07:33N 51°20' E 004°18'0 0.0
2016-Feb-03 06:33N 51°20' E 004°18'0 0.0
2016-Feb-03 05:33N 51°20' E 004°18'0 0.0
2016-Feb-03 04:33N 51°20' E 004°18'0 0.0
2016-Feb-03 03:33N 51°20' E 004°18'0 0.0
2016-Feb-03 02:33N 51°20' E 004°18'0 0.0
2016-Feb-03 01:33N 51°20' E 004°18'0 0.0
2016-Feb-03 00:33N 51°20' E 004°18'0 0.0
2016-Feb-02 23:33N 51°20' E 004°18'0 0.0
2016-Feb-02 22:30N 51°20' E 004°18'0 0.0
2016-Feb-02 21:33N 51°20' E 004°18'0 0.0
2016-Feb-02 20:33N 51°20' E 004°18'0 0.0
2016-Feb-02 19:33N 51°20' E 004°18'0 0.0
2016-Feb-02 18:30N 51°20' E 004°18'0 0.0
2016-Feb-02 17:33N 51°20' E 004°18'0 0.0
2016-Feb-02 16:33N 51°20' E 004°18'0 0.0
2016-Feb-02 15:33N 51°20' E 004°18'0 0.0
2016-Feb-02 14:33N 51°20' E 004°18'0 0.0
2016-Feb-02 13:33N 51°20' E 004°18'0 0.0
2016-Feb-02 12:33N 51°20' E 004°18'0 0.0
2016-Feb-02 11:33N 51°20' E 004°18'0 0.0
2016-Feb-02 10:33N 51°20' E 004°18'0 0.0
2016-Feb-02 09:33N 51°20' E 004°18'0 0.0
2016-Feb-02 08:33N 51°20' E 004°18'0 0.0
2016-Feb-02 07:33N 51°20' E 004°18'0 0.0
2016-Feb-02 06:33N 51°20' E 004°18'0 0.0
2016-Feb-02 05:30N 51°20' E 004°18'0 0.0
2016-Feb-02 04:33N 51°20' E 004°18'0 0.0
2016-Feb-02 03:33N 51°20' E 004°18'1 0.6
2016-Feb-02 02:33N 51°20' E 004°18'1 0.8
2016-Feb-02 01:33N 51°21' E 004°17'0 0.0
2016-Feb-02 00:34N 51°21' E 004°17'2 2.1
2016-Feb-01 23:33N 51°21' E 004°14'6 6.4
2016-Feb-01 22:33N 51°22' E 004°04'6 6.1
2016-Feb-01 21:33N 51°22' E 003°54'7 7.3
2016-Feb-01 20:34N 51°25' E 003°44'0 0.1
2016-Feb-01 19:33N 51°25' E 003°44'0 0.0
2016-Feb-01 18:33N 51°25' E 003°44'0 0.0
2016-Feb-01 17:33N 51°25' E 003°44'0 0.0
2016-Feb-01 16:33N 51°25' E 003°44'0 0.0
2016-Feb-01 15:33N 51°25' E 003°44'0 0.0
2016-Feb-01 14:33N 51°25' E 003°44'0 0.0
2016-Feb-01 13:33N 51°25' E 003°44'0 0.0
2016-Feb-01 12:33N 51°25' E 003°44'0 0.0
2016-Feb-01 11:33N 51°25' E 003°44'0 0.0
2016-Feb-01 10:33N 51°25' E 003°44'0 0.0
2016-Feb-01 09:33N 51°25' E 003°44'0 0.0
2016-Feb-01 08:33N 51°25' E 003°44'0 0.0
2016-Feb-01 07:33N 51°25' E 003°44'0 0.0
2016-Feb-01 06:33N 51°25' E 003°44'0 0.0
2016-Feb-01 05:33N 51°25' E 003°44'0 0.0
2016-Feb-01 04:33N 51°25' E 003°44'0 0.0
2016-Feb-01 03:33N 51°25' E 003°44'0 0.0
2016-Feb-01 02:33N 51°25' E 003°44'0 0.0
2016-Feb-01 01:33N 51°25' E 003°44'0 0.0
2016-Feb-01 00:33N 51°25' E 003°44'0 0.0
2016-Jan-31 23:33N 51°25' E 003°44'0 0.0
2016-Jan-31 22:33N 51°25' E 003°44'0 0.0
2016-Jan-31 21:33N 51°25' E 003°44'0 0.0
2016-Jan-31 20:33N 51°25' E 003°44'0 0.0
2016-Jan-31 19:33N 51°25' E 003°44'0 0.0
2016-Jan-31 18:33N 51°25' E 003°44'0 0.0
2016-Jan-31 17:33N 51°25' E 003°44'0 0.0
2016-Jan-31 16:33N 51°25' E 003°44'0 0.0
2016-Jan-31 15:33N 51°25' E 003°44'0 0.0
2016-Jan-31 14:33N 51°25' E 003°44'0 0.0
2016-Jan-31 13:33N 51°25' E 003°44'0 0.0
2016-Jan-31 12:33N 51°25' E 003°44'0 0.0
2016-Jan-31 11:33N 51°25' E 003°44'0 0.0
2016-Jan-31 10:33N 51°25' E 003°44'0 0.0
2016-Jan-31 09:33N 51°25' E 003°44'0 0.0
2016-Jan-31 08:33N 51°25' E 003°44'1 1.4
2016-Jan-31 07:33N 51°26' E 003°42'1211.8
2016-Jan-31 06:34N 51°24' E 003°23'1413.9
2016-Jan-31 05:34N 51°24' E 003°01'1212.3
2016-Jan-31 04:33N 51°22' E 002°41'5 5.4
2016-Jan-31 03:33N 51°22' E 002°33'5 5.3
2016-Jan-31 02:33N 51°20' E 002°24'6 6.3
2016-Jan-31 01:33N 51°19' E 002°15'7 6.7
2016-Jan-31 00:33N 51°20' E 002°04'7 6.8
2016-Jan-30 23:34N 51°26' E 001°59'7 7.5
2016-Jan-30 22:33N 51°33' E 002°05'7 6.8
2016-Jan-30 21:33N 51°38' E 002°12'7 7.3
2016-Jan-30 20:33N 51°43' E 002°20'7 7.4
2016-Jan-30 19:33N 51°48' E 002°29'149 6.2
2016-Jan-29 19:23N 54°01' E 004°21'6 7.7
2016-Jan-29 18:33N 54°06' E 004°27'300 6.8
2016-Jan-27 22:23N 57°48' E 010°27'810.2
2016-Jan-27 21:33N 57°49' E 010°42'7 7.3
2016-Jan-27 20:33N 57°42' E 010°46'1412.6
2016-Jan-27 19:28N 57°33' E 011°06'1213.5
2016-Jan-27 18:34N 57°28' E 011°26'1414.1
2016-Jan-27 17:33N 57°14' E 011°35'11212.4
2016-Jan-27 08:32N 55°24' E 011°01'1212.2
2016-Jan-27 07:33N 55°12' E 011°04'1212.3
2016-Jan-27 06:33N 54°60' E 010°59'1111.6
2016-Jan-27 05:33N 54°50' E 010°50'1110.6
2016-Jan-27 04:33N 54°39' E 010°52'1111.4
2016-Jan-27 03:33N 54°36' E 011°11'1211.7
2016-Jan-27 02:33N 54°30' E 011°29'1212.4
2016-Jan-27 01:33N 54°27' E 011°49'1212.2
2016-Jan-27 00:33N 54°27' E 012°10'1110.9
2016-Jan-26 23:33N 54°37' E 012°18'1212.2
2016-Jan-26 22:33N 54°45' E 012°33'3113.2
2016-Jan-26 20:12N 54°56' E 013°24'913.9
2016-Jan-26 19:34N 54°59' E 013°39'1414.0
2016-Jan-26 18:33N 55°04' E 014°02'1413.5
2016-Jan-26 17:33N 55°14' E 014°18'1414.0
2016-Jan-26 16:33N 55°25' E 014°33'1413.6
2016-Jan-26 15:34N 55°32' E 014°54'1414.0
2016-Jan-26 14:33N 55°37' E 015°16'1414.3
2016-Jan-26 13:33N 55°41' E 015°41'  

Dump ship's entire track history